Time;durP1;ratioP1;P1;durP2;ratioP2;P2;SDS_P1;SDS_P2;PMS_P1;PMS_P2;Temp;Humidity;BMP_temperature;BMP_pressure;BME280_temperature;BME280_humidity;BME280_pressure;Samples;Min_cycle;Max_cycle;Signal;HPM_P1;HPM_P2
2021/06/26 00:00:56;;;;;;;1.10;1.00;;;;;11.40;100888.00;;;;5087726;28;20074;-79
2021/06/26 00:03:28;;;;;;;3.17;1.45;;;;;11.40;100866.00;;;;5086861;28;20020;-82
2021/06/26 00:05:55;;;;;;;;;;;;;11.30;100897.00;;;;5085724;28;20085;-81
2021/06/26 00:08:23;;;;;;;12.07;1.50;;;;;11.10;100898.00;;;;5086731;28;20382;-81
2021/06/26 00:10:50;;;;;;;7.03;1.98;;;;;11.10;100890.00;;;;5087437;28;20077;-78
2021/06/26 00:13:18;;;;;;;10.60;3.40;;;;;11.10;100875.00;;;;5086665;28;20031;-80
2021/06/26 00:15:45;;;;;;;10.77;3.50;;;;;11.00;100876.00;;;;5087569;28;20050;-79
2021/06/26 00:18:12;;;;;;;6.68;2.10;;;;;11.10;100879.00;;;;5087393;28;20077;-83
2021/06/26 00:20:40;;;;;;;5.72;2.00;;;;;11.00;100870.00;;;;5087006;28;20032;-82
2021/06/26 00:23:06;;;;;;;5.25;1.83;;;;;11.10;100871.00;;;;5087686;28;20085;-84
2021/06/26 00:25:33;;;;;;;8.07;2.33;;;;;11.00;100884.00;;;;5087644;28;20064;-83
2021/06/26 00:27:59;;;;;;;2.95;1.60;;;;;11.00;100884.00;;;;5087645;28;20036;-80
2021/06/26 00:30:26;;;;;;;6.35;1.50;;;;;11.00;100858.00;;;;5086720;28;20471;-81
2021/06/26 00:32:54;;;;;;;4.75;1.15;;;;;10.90;100881.00;;;;5068040;28;20487;-80
2021/06/26 00:35:21;;;;;;;4.30;2.63;;;;;10.80;100878.00;;;;5086931;28;20028;-83
2021/06/26 00:37:48;;;;;;;3.15;1.40;;;;;10.70;100877.00;;;;5086143;28;20032;-87
2021/06/26 00:40:15;;;;;;;2.40;1.33;;;;;10.70;100889.00;;;;5066899;28;20036;-83
2021/06/26 00:42:44;;;;;;;4.18;1.40;;;;;10.80;100892.00;;;;5085074;28;20034;-86
2021/06/26 00:45:13;;;;;;;2.03;1.10;;;;;10.90;100877.00;;;;5085260;28;20386;-82
2021/06/26 00:47:40;;;;;;;4.13;1.23;;;;;11.20;100880.00;;;;5085707;28;20035;-83
2021/06/26 00:50:20;;;;;;;1.05;1.00;;;;;11.10;100845.00;;;;5066141;28;20043;-84
2021/06/26 00:52:47;;;;;;;9.82;1.20;;;;;10.90;100863.00;;;;5095115;28;20517;-80
2021/06/26 00:55:15;;;;;;;1.42;1.00;;;;;10.70;100865.00;;;;5105798;28;20036;-81
2021/06/26 00:57:48;;;;;;;8.10;1.10;;;;;10.70;100860.00;;;;5104938;28;20051;-82
2021/06/26 01:00:15;;;;;;;5.22;1.70;;;;;10.60;100849.00;;;;5105258;28;20059;-81
2021/06/26 01:02:45;;;;;;;3.45;1.80;;;;;10.70;100861.00;;;;5105037;28;20426;-82
2021/06/26 01:05:12;;;;;;;5.95;1.85;;;;;10.60;100872.00;;;;5105615;28;20573;-84
2021/06/26 01:07:39;;;;;;;3.53;2.25;;;;;10.50;100855.00;;;;5105895;28;20024;-82
2021/06/26 01:10:08;;;;;;;2.55;1.83;;;;;10.30;100864.00;;;;5106387;28;20047;-83
2021/06/26 01:12:35;;;;;;;3.03;1.67;;;;;10.20;100846.00;;;;5106593;28;20413;-81
2021/06/26 01:15:02;;;;;;;3.78;1.52;;;;;10.10;100854.00;;;;5104911;28;20055;-83
2021/06/26 01:17:29;;;;;;;5.40;1.40;;;;;10.10;100829.00;;;;5106070;28;20390;-82
2021/06/26 01:19:56;;;;;;;2.50;1.52;;;;;10.00;100828.00;;;;5103965;28;20050;-85
2021/06/26 01:22:23;;;;;;;1.70;1.27;;;;;10.00;100834.00;;;;5104026;28;20495;-83
2021/06/26 01:24:51;;;;;;;1.98;1.20;;;;;9.90;100838.00;;;;5105624;28;20106;-83
2021/06/26 01:27:18;;;;;;;6.38;1.55;;;;;9.80;100818.00;;;;5109128;28;20023;-82
2021/06/26 01:29:52;;;;;;;4.05;1.60;;;;;9.70;100819.00;;;;5109431;28;20031;-79
2021/06/26 01:32:20;;;;;;;3.75;0.98;;;;;9.80;100812.00;;;;5110873;28;20031;-84
2021/06/26 01:34:47;;;;;;;1.40;1.15;;;;;9.80;100831.00;;;;5109874;28;20019;-84
2021/06/26 01:37:14;;;;;;;3.30;1.17;;;;;10.10;100816.00;;;;5109738;28;20055;-82
2021/06/26 01:39:41;;;;;;;1.30;1.02;;;;;10.40;100823.00;;;;5109501;28;20080;-80
2021/06/26 01:42:08;;;;;;;3.20;1.05;;;;;10.80;100807.00;;;;5110172;28;20425;-84
2021/06/26 01:44:35;;;;;;;1.77;0.73;;;;;11.30;100803.00;;;;5092325;28;20023;-86
2021/06/26 01:47:05;;;;;;;1.23;0.73;;;;;11.50;100791.00;;;;5109927;28;20038;-85
2021/06/26 01:49:31;;;;;;;3.53;1.02;;;;;11.60;100783.00;;;;5109509;28;20031;-82
2021/06/26 01:51:58;;;;;;;2.20;0.98;;;;;11.80;100772.00;;;;5109481;28;20492;-86
2021/06/26 01:54:25;;;;;;;9.98;1.10;;;;;11.80;100789.00;;;;5109692;28;20023;-83
2021/06/26 01:56:52;;;;;;;3.00;0.98;;;;;11.90;100785.00;;;;5091335;28;20498;-84
2021/06/26 01:59:18;;;;;;;1.67;0.70;;;;;11.70;100797.00;;;;5109418;28;20068;-85
2021/06/26 02:01:45;;;;;;;2.38;0.90;;;;;11.70;100786.00;;;;5109181;28;20043;-84
2021/06/26 02:04:12;;;;;;;0.75;0.68;;;;;11.70;100778.00;;;;5091224;28;20031;-83
2021/06/26 02:06:38;;;;;;;2.78;1.20;;;;;11.50;100780.00;;;;5109294;28;20152;-81
2021/06/26 02:09:07;;;;;;;1.05;0.80;;;;;11.30;100761.00;;;;5109039;28;20448;-83
2021/06/26 02:11:35;;;;;;;1.20;0.98;;;;;11.20;100753.00;;;;5109290;28;20137;-83
2021/06/26 02:14:01;;;;;;;0.70;0.70;;;;;11.30;100784.00;;;;5109289;28;20031;-82
2021/06/26 02:16:28;;;;;;;7.93;0.90;;;;;11.40;100788.00;;;;5109182;28;20058;-83
2021/06/26 02:18:54;;;;;;;1.67;0.93;;;;;11.30;100767.00;;;;5108537;28;20055;-81
2021/06/26 02:21:21;;;;;;;12.40;1.15;;;;;11.40;100781.00;;;;5089845;28;20402;-80
2021/06/26 02:23:48;;;;;;;2.63;0.90;;;;;11.80;100763.00;;;;5109879;28;20439;-80
2021/06/26 02:26:15;;;;;;;2.65;0.82;;;;;11.90;100766.00;;;;5108572;28;20030;-85
2021/06/26 02:28:41;;;;;;;4.07;0.80;;;;;12.10;100754.00;;;;5109433;28;20490;-80
2021/06/26 02:31:08;;;;;;;3.30;0.80;;;;;12.10;100745.00;;;;5090376;28;20032;-81
2021/06/26 02:33:35;;;;;;;4.30;1.00;;;;;11.90;100756.00;;;;5108295;28;20399;-84
2021/06/26 02:36:01;;;;;;;2.35;0.70;;;;;11.90;100756.00;;;;5107093;28;20019;-79
2021/06/26 02:38:28;;;;;;;1.55;1.00;;;;;12.00;100762.00;;;;5109464;28;20490;-83
2021/06/26 02:40:54;;;;;;;2.40;0.80;;;;;11.90;100783.00;;;;5108437;28;20027;-81
2021/06/26 02:43:21;;;;;;;6.07;1.20;;;;;11.70;100797.00;;;;5107784;28;20038;-82
2021/06/26 02:45:48;;;;;;;2.25;0.90;;;;;11.80;100776.00;;;;5110488;28;20088;-82
2021/06/26 02:48:15;;;;;;;6.00;1.08;;;;;11.60;100803.00;;;;5108120;28;20033;-83
2021/06/26 02:50:42;;;;;;;2.85;1.25;;;;;11.40;100784.00;;;;5108355;28;20402;-83
2021/06/26 02:53:09;;;;;;;3.92;1.20;;;;;11.20;100793.00;;;;5108292;28;20486;-81
2021/06/26 02:55:36;;;;;;;2.00;0.80;;;;;11.00;100802.00;;;;5089135;28;20043;-81
2021/06/26 02:58:03;;;;;;;2.72;0.80;;;;;10.80;100798.00;;;;5107946;28;20136;-86
2021/06/26 03:00:31;;;;;;;1.48;0.85;;;;;10.60;100782.00;;;;5107576;28;20402;-82
2021/06/26 03:02:57;;;;;;;1.42;0.70;;;;;10.50;100775.00;;;;5107320;28;20080;-83
2021/06/26 03:05:24;;;;;;;2.00;0.90;;;;;10.30;100787.00;;;;5107251;28;20024;-83
2021/06/26 03:07:55;;;;;;;8.82;1.17;;;;;10.30;100784.00;;;;5107853;28;20020;-83
2021/06/26 03:10:22;;;;;;;4.00;0.98;;;;;10.20;100806.00;;;;5107623;28;20154;-82
2021/06/26 03:12:49;;;;;;;2.63;0.88;;;;;10.20;100793.00;;;;5106836;28;20039;-83
2021/06/26 03:15:16;;;;;;;9.30;1.00;;;;;10.10;100819.00;;;;5107029;28;20031;-80
2021/06/26 03:17:42;;;;;;;1.48;1.00;;;;;10.00;100791.00;;;;5107066;28;20023;-84
2021/06/26 03:20:10;;;;;;;5.25;1.00;;;;;10.00;100797.00;;;;5107112;28;20031;-85
2021/06/26 03:22:37;;;;;;;2.97;1.00;;;;;9.80;100795.00;;;;5106988;28;20135;-84
2021/06/26 03:25:09;;;;;;;2.13;1.13;;;;;9.80;100818.00;;;;5107971;28;20024;-82
2021/06/26 03:27:37;;;;;;;2.13;0.80;;;;;9.80;100800.00;;;;5106348;28;20521;-85
2021/06/26 03:30:05;;;;;;;4.32;1.02;;;;;9.70;100776.00;;;;5088099;28;20024;-86
2021/06/26 03:32:32;;;;;;;6.00;1.02;;;;;9.80;100772.00;;;;5107220;28;20917;-80
2021/06/26 03:34:59;;;;;;;3.92;1.10;;;;;9.70;100781.00;;;;5105981;28;20118;-83
2021/06/26 03:37:26;;;;;;;2.65;0.98;;;;;9.70;100761.00;;;;5107224;28;20027;-81
2021/06/26 03:39:53;;;;;;;5.10;1.27;;;;;9.60;100763.00;;;;5106434;28;20027;-83
2021/06/26 03:42:19;;;;;;;3.85;1.63;;;;;9.60;100753.00;;;;5106595;28;20057;-81
2021/06/26 03:44:46;;;;;;;3.63;1.90;;;;;9.70;100754.00;;;;5088481;28;20034;-83
2021/06/26 03:47:12;;;;;;;6.13;2.33;;;;;9.70;100741.00;;;;5106952;28;20031;-81
2021/06/26 03:49:39;;;;;;;2.00;1.48;;;;;9.60;100745.00;;;;5106761;28;20027;-82
2021/06/26 03:52:07;;;;;;;7.25;1.77;;;;;9.60;100740.00;;;;5107411;28;20039;-82
2021/06/26 03:54:34;;;;;;;3.17;1.85;;;;;9.50;100730.00;;;;5106595;28;20028;-82
2021/06/26 03:57:01;;;;;;;3.45;1.08;;;;;9.50;100719.00;;;;5105976;28;20051;-82
2021/06/26 03:59:28;;;;;;;2.22;1.15;;;;;9.50;100736.00;;;;5107184;28;20028;-81
2021/06/26 04:01:55;;;;;;;5.38;1.40;;;;;9.50;100721.00;;;;5106467;28;20129;-79
2021/06/26 04:04:22;;;;;;;2.03;1.15;;;;;9.40;100721.00;;;;5106029;28;20028;-82
2021/06/26 04:06:51;;;;;;;3.67;1.00;;;;;9.40;100681.00;;;;5106601;28;20134;-83
2021/06/26 04:09:18;;;;;;;2.42;1.00;;;;;9.40;100700.00;;;;5106938;28;20023;-86
2021/06/26 04:11:44;;;;;;;3.67;1.30;;;;;9.40;100698.00;;;;5106075;28;20027;-84
2021/06/26 04:14:11;;;;;;;2.47;1.67;;;;;9.50;100702.00;;;;5106901;28;20111;-85
2021/06/26 04:16:37;;;;;;;3.28;1.40;;;;;9.60;100694.00;;;;5106436;28;20053;-81
2021/06/26 04:19:04;;;;;;;6.90;1.73;;;;;9.60;100704.00;;;;5106032;28;20507;-82
2021/06/26 04:21:30;;;;;;;2.72;1.58;;;;;9.50;100719.00;;;;5105840;28;20483;-84
2021/06/26 04:23:57;;;;;;;7.32;1.58;;;;;9.60;100697.00;;;;5106079;28;20549;-81
2021/06/26 04:26:24;;;;;;;3.63;1.42;;;;;9.60;100684.00;;;;5106038;28;20027;-80
2021/06/26 04:28:51;;;;;;;2.45;1.20;;;;;9.50;100699.00;;;;5106169;28;20032;-83
2021/06/26 04:31:18;;;;;;;2.63;1.15;;;;;9.50;100703.00;;;;5105347;28;20034;-81
2021/06/26 04:33:44;;;;;;;9.52;1.65;;;;;9.50;100701.00;;;;5105800;28;20094;-81
2021/06/26 04:36:14;;;;;;;5.20;1.88;;;;;9.60;100690.00;;;;5086995;28;20406;-80
2021/06/26 04:38:42;;;;;;;3.35;1.85;;;;;9.60;100699.00;;;;5105162;28;20038;-84
2021/06/26 04:41:09;;;;;;;6.50;1.50;;;;;9.60;100693.00;;;;5105883;28;20035;-83
2021/06/26 04:43:37;;;;;;;9.30;1.60;;;;;9.60;100664.00;;;;5105338;28;20032;-85
2021/06/26 04:46:08;;;;;;;2.28;1.05;;;;;9.60;100680.00;;;;5105261;28;20100;-81
2021/06/26 04:48:40;;;;;;;4.95;1.70;;;;;9.50;100655.00;;;;5106088;28;20027;-85
2021/06/26 04:51:06;;;;;;;3.42;1.73;;;;;9.50;100639.00;;;;5104788;28;20039;-79
2021/06/26 04:53:33;;;;;;;4.15;1.27;;;;;9.50;100652.00;;;;5105278;28;20027;-84
2021/06/26 04:56:00;;;;;;;3.22;1.40;;;;;9.50;100632.00;;;;5106227;28;20032;-85
2021/06/26 04:58:28;;;;;;;2.05;1.20;;;;;9.50;100629.00;;;;5105189;28;20578;-83
2021/06/26 05:00:57;;;;;;;2.78;1.45;;;;;9.50;100640.00;;;;5104158;28;20039;-84
2021/06/26 05:03:24;;;;;;;2.50;1.70;;;;;9.50;100662.00;;;;5104441;28;20027;-83
2021/06/26 05:05:51;;;;;;;5.53;1.55;;;;;9.40;100627.00;;;;5105193;28;20091;-82
2021/06/26 05:08:18;;;;;;;3.78;1.30;;;;;9.60;100647.00;;;;5085745;28;20031;-83
2021/06/26 05:10:45;;;;;;;2.50;1.45;;;;;9.60;100627.00;;;;5104683;28;20019;-81
2021/06/26 05:13:12;;;;;;;5.25;2.00;;;;;9.50;100642.00;;;;5104580;28;20026;-82
2021/06/26 05:15:41;;;;;;;3.95;1.48;;;;;9.50;100645.00;;;;5104557;28;20027;-82
2021/06/26 05:18:09;;;;;;;4.53;1.33;;;;;9.40;100627.00;;;;5105436;28;20051;-85
2021/06/26 05:20:36;;;;;;;1.83;1.27;;;;;9.40;100642.00;;;;5104937;28;20028;-82
2021/06/26 05:23:19;;;;;;;4.18;1.67;;;;;9.20;100636.00;;;;5104864;28;20044;-82
2021/06/26 05:25:46;;;;;;;4.50;1.48;;;;;9.30;100634.00;;;;5107582;28;20038;-83
2021/06/26 05:28:13;;;;;;;2.80;1.20;;;;;9.30;100618.00;;;;5105975;28;20027;-86
2021/06/26 05:30:41;;;;;;;3.05;1.40;;;;;9.20;100617.00;;;;5105833;28;20087;-83
2021/06/26 05:33:07;;;;;;;7.18;1.60;;;;;9.20;100621.00;;;;5104424;28;20554;-84
2021/06/26 05:35:35;;;;;;;2.03;1.48;;;;;9.20;100599.00;;;;5104242;28;20035;-81
2021/06/26 05:38:02;;;;;;;4.88;1.63;;;;;9.30;100619.00;;;;5086033;28;20107;-84
2021/06/26 05:40:28;;;;;;;2.17;1.55;;;;;9.20;100616.00;;;;5104825;28;20127;-84
2021/06/26 05:42:55;;;;;;;3.97;1.48;;;;;9.20;100600.00;;;;5104820;28;20055;-84
2021/06/26 05:45:22;;;;;;;3.55;1.40;;;;;9.20;100583.00;;;;5104224;28;20023;-83
2021/06/26 05:47:48;;;;;;;6.05;1.70;;;;;9.20;100572.00;;;;5104626;28;20036;-83
2021/06/26 05:50:15;;;;;;;4.53;1.80;;;;;9.20;100573.00;;;;5104931;28;20491;-81
2021/06/26 05:52:50;;;;;;;5.63;2.05;;;;;9.20;100552.00;;;;5104372;28;20024;-83
2021/06/26 05:55:17;;;;;;;4.13;1.80;;;;;9.20;100561.00;;;;5104802;28;20051;-83
2021/06/26 05:57:45;;;;;;;4.70;1.92;;;;;9.20;100571.00;;;;5103885;28;20052;-82
2021/06/26 06:00:13;;;;;;;3.80;1.88;;;;;9.20;100540.00;;;;5104526;28;20047;-85
2021/06/26 06:02:40;;;;;;;4.72;1.70;;;;;9.20;100547.00;;;;5104321;28;20027;-81
2021/06/26 06:05:10;;;;;;;2.97;1.60;;;;;9.20;100552.00;;;;5105059;28;20031;-81
2021/06/26 06:07:37;;;;;;;2.58;1.80;;;;;9.30;100544.00;;;;5104745;28;20035;-84
2021/06/26 06:10:08;;;;;;;8.63;1.80;;;;;9.30;100523.00;;;;5104411;28;20110;-81
2021/06/26 06:12:36;;;;;;;;;;;;;9.30;100550.00;;;;5108425;28;20038;-85
2021/06/26 06:15:05;;;;;;;4.05;1.75;;;;;9.30;100540.00;;;;5108491;28;19922;-81
2021/06/26 06:17:31;;;;;;;4.55;2.10;;;;;9.30;100569.00;;;;5108206;28;20487;-85
2021/06/26 06:19:58;;;;;;;3.20;2.10;;;;;9.30;100549.00;;;;5108230;28;20065;-82
2021/06/26 06:22:25;;;;;;;3.25;1.65;;;;;9.30;100558.00;;;;5108622;28;20035;-85
2021/06/26 06:24:52;;;;;;;1.67;1.58;;;;;9.30;100566.00;;;;5108250;28;20107;-83
2021/06/26 06:27:19;;;;;;;8.25;1.90;;;;;9.30;100563.00;;;;5108683;28;20024;-81
2021/06/26 06:29:45;;;;;;;3.78;1.67;;;;;9.50;100556.00;;;;5108569;28;20023;-82
2021/06/26 06:32:12;;;;;;;2.20;1.75;;;;;9.50;100551.00;;;;5107264;28;20077;-80
2021/06/26 06:34:38;;;;;;;2.95;1.58;;;;;9.60;100515.00;;;;5107901;28;20031;-83
2021/06/26 06:37:05;;;;;;;7.40;2.10;;;;;9.70;100505.00;;;;5108030;28;20110;-81
2021/06/26 06:39:32;;;;;;;3.05;1.80;;;;;9.80;100492.00;;;;5107437;28;20082;-79
2021/06/26 06:41:58;;;;;;;2.80;1.90;;;;;9.80;100479.00;;;;5107480;28;20102;-86
2021/06/26 06:44:25;;;;;;;3.45;2.00;;;;;9.90;100484.00;;;;5107677;28;20110;-83
2021/06/26 06:46:51;;;;;;;3.97;2.20;;;;;9.90;100499.00;;;;5107341;28;20019;-79
2021/06/26 06:49:18;;;;;;;3.08;1.70;;;;;9.90;100480.00;;;;5107555;28;20043;-78
2021/06/26 06:51:45;;;;;;;4.93;1.98;;;;;9.80;100491.00;;;;5088915;28;20398;-81
2021/06/26 06:54:11;;;;;;;5.47;1.90;;;;;9.70;100475.00;;;;5107081;28;20045;-81
2021/06/26 06:56:38;;;;;;;3.88;2.13;;;;;9.70;100467.00;;;;5107637;28;20030;-82
2021/06/26 06:59:04;;;;;;;5.38;1.83;;;;;9.60;100440.00;;;;5107748;28;20032;-84
2021/06/26 07:01:31;;;;;;;2.75;1.75;;;;;9.60;100453.00;;;;5107147;28;20028;-84
2021/06/26 07:03:57;;;;;;;7.50;2.30;;;;;9.60;100450.00;;;;5088795;28;20048;-82
2021/06/26 07:06:24;;;;;;;2.35;1.70;;;;;9.60;100459.00;;;;5107770;28;20016;-81
2021/06/26 07:08:51;;;;;;;4.57;2.45;;;;;9.70;100450.00;;;;5106683;28;20073;-80
2021/06/26 07:11:17;;;;;;;3.17;2.35;;;;;9.80;100446.00;;;;5107484;28;20034;-80
2021/06/26 07:13:44;;;;;;;3.10;2.13;;;;;9.80;100412.00;;;;5088698;28;20032;-81
2021/06/26 07:16:10;;;;;;;2.30;2.10;;;;;9.80;100419.00;;;;5106637;28;20023;-81
2021/06/26 07:18:37;;;;;;;4.07;2.25;;;;;9.90;100384.00;;;;5107020;28;20108;-80
2021/06/26 07:21:04;;;;;;;3.90;2.55;;;;;10.00;100379.00;;;;5106520;28;20065;-84
2021/06/26 07:23:32;;;;;;;8.38;2.67;;;;;10.00;100363.00;;;;5106423;28;20105;-78
2021/06/26 07:25:59;;;;;;;3.00;2.38;;;;;10.00;100335.00;;;;5106757;28;20169;-82
2021/06/26 07:28:25;;;;;;;5.60;2.78;;;;;10.00;100394.00;;;;5106835;28;20043;-80
2021/06/26 07:30:52;;;;;;;2.72;2.20;;;;;10.00;100412.00;;;;5108232;28;20027;-80
2021/06/26 07:33:18;;;;;;;4.28;3.05;;;;;10.00;100408.00;;;;5107797;28;20042;-80
2021/06/26 07:35:48;;;;;;;5.10;2.63;;;;;10.10;100402.00;;;;5107769;28;20094;-83
2021/06/26 07:38:15;;;;;;;5.88;2.78;;;;;10.10;100445.00;;;;5106716;28;20157;-83
2021/06/26 07:40:42;;;;;;;4.25;2.90;;;;;10.20;100436.00;;;;5106264;28;20035;-84
2021/06/26 07:43:08;;;;;;;6.13;2.63;;;;;10.40;100422.00;;;;5107652;28;20102;-81
2021/06/26 07:45:35;;;;;;;7.95;2.83;;;;;10.40;100382.00;;;;5107883;28;20055;-80
2021/06/26 07:48:01;;;;;;;4.43;2.55;;;;;10.50;100322.00;;;;5107491;28;20038;-81
2021/06/26 07:50:28;;;;;;;8.02;3.28;;;;;10.40;100358.00;;;;5106369;28;20027;-80
2021/06/26 07:52:55;;;;;;;4.13;3.03;;;;;10.40;100369.00;;;;5106162;28;20103;-82
2021/06/26 07:55:21;;;;;;;4.80;2.83;;;;;10.40;100367.00;;;;5106474;28;20031;-83
2021/06/26 07:57:48;;;;;;;4.28;2.58;;;;;10.40;100396.00;;;;5107049;28;20865;-82
2021/06/26 08:00:15;;;;;;;3.67;2.85;;;;;10.50;100377.00;;;;5106596;28;20028;-79
2021/06/26 08:02:42;;;;;;;3.92;2.92;;;;;10.60;100388.00;;;;5105825;28;20042;-82
2021/06/26 08:05:08;;;;;;;3.08;2.72;;;;;10.70;100399.00;;;;5106227;28;20054;-81
2021/06/26 08:07:35;;;;;;;3.05;2.53;;;;;10.70;100379.00;;;;5105964;28;20035;-82
2021/06/26 08:10:02;;;;;;;4.63;2.67;;;;;10.60;100379.00;;;;5106024;28;20051;-81
2021/06/26 08:12:28;;;;;;;8.10;2.85;;;;;10.70;100377.00;;;;5106043;28;20411;-82
2021/06/26 08:14:55;;;;;;;8.00;3.05;;;;;10.80;100396.00;;;;5105953;28;20030;-81
2021/06/26 08:17:21;;;;;;;7.18;3.22;;;;;10.80;100365.00;;;;5106133;28;20399;-80
2021/06/26 08:19:48;;;;;;;3.70;2.50;;;;;10.90;100338.00;;;;5106072;28;20023;-81
2021/06/26 08:22:15;;;;;;;7.05;2.85;;;;;10.90;100345.00;;;;5106337;28;20050;-78
2021/06/26 08:24:44;;;;;;;14.82;2.90;;;;;10.90;100323.00;;;;5106511;28;20572;-80
2021/06/26 08:27:11;;;;;;;7.75;2.80;;;;;10.90;100310.00;;;;5106309;28;20031;-85
2021/06/26 08:29:40;;;;;;;3.80;2.42;;;;;10.80;100292.00;;;;5106080;28;20032;-80
2021/06/26 08:32:07;;;;;;;3.33;2.28;;;;;10.80;100279.00;;;;5105170;28;20109;-80
2021/06/26 08:34:33;;;;;;;5.18;2.10;;;;;10.80;100275.00;;;;5104399;28;20084;-86
2021/06/26 08:37:00;;;;;;;4.63;2.50;;;;;10.70;100295.00;;;;5105376;28;20061;-81
2021/06/26 08:39:27;;;;;;;4.22;2.22;;;;;10.80;100287.00;;;;5105116;28;20032;-82
2021/06/26 08:41:54;;;;;;;3.70;2.50;;;;;10.80;100299.00;;;;5105743;28;20031;-81
2021/06/26 08:44:21;;;;;;;3.75;2.20;;;;;10.90;100316.00;;;;5106331;28;20028;-81
2021/06/26 08:46:49;;;;;;;5.45;2.58;;;;;10.90;100301.00;;;;5105367;28;20035;-82
2021/06/26 08:49:17;;;;;;;5.82;2.65;;;;;11.00;100334.00;;;;5106203;28;20489;-83
2021/06/26 08:51:44;;;;;;;4.45;2.42;;;;;11.00;100325.00;;;;5105489;28;20039;-84
2021/06/26 08:54:16;;;;;;;3.85;2.53;;;;;11.00;100319.00;;;;5105253;28;20111;-82
2021/06/26 08:56:45;;;;;;;2.40;2.20;;;;;11.00;100320.00;;;;5105136;28;20043;-83
2021/06/26 08:59:12;;;;;;;4.47;2.35;;;;;11.00;100283.00;;;;5104962;28;20062;-80
2021/06/26 09:01:41;;;;;;;6.03;2.78;;;;;11.00;100285.00;;;;5105256;28;20122;-81
2021/06/26 09:04:10;;;;;;;5.90;2.50;;;;;11.00;100291.00;;;;5106374;28;20027;-83
2021/06/26 09:06:54;;;;;;;4.00;2.42;;;;;11.10;100331.00;;;;5105477;28;20028;-81
2021/06/26 09:09:37;;;;;;;4.30;2.40;;;;;11.10;100320.00;;;;5105768;28;20024;-83
2021/06/26 09:12:09;;;;;;;3.25;2.28;;;;;11.10;100337.00;;;;5106739;28;20027;-82
2021/06/26 09:14:39;;;;;;;5.50;2.40;;;;;11.10;100338.00;;;;5105906;28;20085;-79
2021/06/26 09:17:07;;;;;;;3.42;2.15;;;;;11.00;100334.00;;;;5106890;28;20024;-81
2021/06/26 09:19:35;;;;;;;10.05;3.20;;;;;11.20;100342.00;;;;5105939;28;20031;-82
2021/06/26 09:22:11;;;;;;;6.50;2.55;;;;;11.20;100345.00;;;;5106559;28;20122;-81
2021/06/26 09:24:41;;;;;;;5.80;3.00;;;;;11.00;100311.00;;;;5106312;28;20023;-82
2021/06/26 09:27:09;;;;;;;13.55;2.50;;;;;11.20;100326.00;;;;5087902;28;20398;-81
2021/06/26 09:29:36;;;;;;;2.55;2.10;;;;;11.20;100398.00;;;;5106228;28;20077;-82
2021/06/26 09:32:05;;;;;;;2.70;1.95;;;;;11.20;100352.00;;;;5105611;28;20023;-81
2021/06/26 09:34:41;;;;;;;9.13;4.22;;;;;11.20;100360.00;;;;5105193;28;20109;-82
2021/06/26 09:37:10;;;;;;;5.28;2.55;;;;;11.20;100351.00;;;;5105065;28;20027;-81
2021/06/26 09:39:42;;;;;;;3.92;2.85;;;;;11.30;100360.00;;;;5105081;28;20062;-84
2021/06/26 09:42:15;;;;;;;;;;;;;11.30;100358.00;;;;5104986;28;20093;-84
2021/06/26 09:45:09;;;;;;;5.90;2.90;;;;;11.30;100347.00;;;;5104610;28;19911;-85
2021/06/26 09:47:45;;;;;;;3.90;2.17;;;;;11.30;100321.00;;;;5089412;28;20719;-81
2021/06/26 09:50:12;;;;;;;4.38;3.00;;;;;11.30;100330.00;;;;5109384;28;20566;-80
2021/06/26 09:52:50;;;;;;;3.47;2.35;;;;;11.30;100290.00;;;;5109379;28;20043;-80
2021/06/26 09:55:18;;;;;;;11.18;2.60;;;;;11.30;100308.00;;;;5110341;28;20040;-82
2021/06/26 09:58:38;;;;;;;5.20;2.35;;;;;11.30;100310.00;;;;5109974;28;20048;-80
2021/06/26 10:01:05;;;;;;;3.45;1.90;;;;;11.30;100322.00;;;;5110558;28;20031;-81
2021/06/26 10:03:32;;;;;;;9.57;2.10;;;;;11.30;100314.00;;;;5110145;28;20057;-81
2021/06/26 10:05:58;;;;;;;6.57;2.50;;;;;11.30;100333.00;;;;5110375;28;20035;-80
2021/06/26 10:08:25;;;;;;;7.88;2.30;;;;;11.30;100317.00;;;;5092579;28;20491;-80
2021/06/26 10:10:52;;;;;;;4.38;2.17;;;;;11.30;100310.00;;;;5093034;28;20035;-82
2021/06/26 10:13:20;;;;;;;2.88;2.22;;;;;11.30;100316.00;;;;5110484;28;20084;-80
2021/06/26 10:15:47;;;;;;;7.07;4.93;;;;;11.40;100403.00;;;;5110535;28;20858;-81
2021/06/26 10:18:14;;;;;;;6.72;4.05;;;;;11.50;100532.00;;;;5110510;28;20402;-78
2021/06/26 10:20:40;;;;;;;8.93;3.33;;;;;11.40;100581.00;;;;5110199;28;20509;-77
2021/06/26 10:23:07;;;;;;;9.20;6.22;;;;;11.20;100534.00;;;;5110311;28;20031;-79
2021/06/26 10:25:36;;;;;;;14.50;8.25;;;;;11.00;100513.00;;;;5110090;28;20020;-82
2021/06/26 10:28:13;;;;;;;13.55;9.30;;;;;10.90;100392.00;;;;5109585;28;20035;-80
2021/06/26 10:30:39;;;;;;;16.52;11.75;;;;;10.90;100439.00;;;;5091878;28;20028;-84
2021/06/26 10:33:11;;;;;;;13.80;11.05;;;;;10.80;100505.00;;;;5110781;28;20517;-81
2021/06/26 10:35:52;;;;;;;17.88;7.60;;;;;10.80;100419.00;;;;5110159;28;20028;-79
2021/06/26 10:38:19;;;;;;;16.80;12.85;;;;;10.80;100441.00;;;;5109829;28;20034;-79
2021/06/26 10:40:48;;;;;;;16.40;9.88;;;;;10.80;100505.00;;;;5108851;28;20096;-78
2021/06/26 10:43:28;;;;;;;17.50;10.15;;;;;10.90;100510.00;;;;5109060;28;20023;-81
2021/06/26 10:46:15;;;;;;;16.83;12.55;;;;;10.90;100460.00;;;;5109534;28;20123;-80
2021/06/26 10:48:57;;;;;;;15.45;11.60;;;;;11.00;100458.00;;;;5110058;28;20027;-79
2021/06/26 10:51:41;;;;;;;19.60;12.80;;;;;11.00;100399.00;;;;5109608;28;20036;-78
2021/06/26 10:54:16;;;;;;;23.45;16.25;;;;;11.10;100399.00;;;;5109980;28;20076;-83
2021/06/26 10:56:44;;;;;;;27.08;17.60;;;;;11.20;100449.00;;;;5109400;28;20079;-79
2021/06/26 10:59:19;;;;;;;21.25;15.80;;;;;11.30;100507.00;;;;5108480;28;20119;-78
2021/06/26 11:02:12;;;;;;;23.27;17.80;;;;;11.40;100514.00;;;;5109227;28;20040;-82
2021/06/26 11:04:46;;;;;;;26.52;16.77;;;;;11.50;100468.00;;;;5104680;28;20039;-81
2021/06/26 11:07:13;;;;;;;23.17;16.48;;;;;11.60;100474.00;;;;5109210;28;20031;-79
2021/06/26 11:09:42;;;;;;;24.38;17.45;;;;;11.70;100530.00;;;;5109476;28;20070;-79
2021/06/26 11:12:21;;;;;;;20.50;15.32;;;;;11.80;100564.00;;;;5109184;28;20043;-78
2021/06/26 11:14:55;;;;;;;14.98;11.85;;;;;11.80;100563.00;;;;5109539;28;20031;-80
2021/06/26 11:17:23;;;;;;;19.60;13.10;;;;;11.80;100570.00;;;;5109893;28;20077;-80
2021/06/26 11:19:51;;;;;;;22.15;11.52;;;;;11.80;100568.00;;;;5109492;28;20062;-80
2021/06/26 11:22:17;;;;;;;25.83;12.65;;;;;11.90;100620.00;;;;5108020;28;20057;-79
2021/06/26 11:24:46;;;;;;;23.65;13.65;;;;;11.80;100644.00;;;;5107854;28;20023;-81
2021/06/26 11:27:19;;;;;;;17.08;13.20;;;;;11.80;100696.00;;;;5107412;28;20027;-80
2021/06/26 11:29:48;;;;;;;20.70;14.27;;;;;11.70;100666.00;;;;5107840;28;20028;-82
2021/06/26 11:32:26;;;;;;;26.23;14.20;;;;;11.60;100598.00;;;;5109032;28;20027;-82
2021/06/26 11:34:59;;;;;;;53.60;14.95;;;;;11.60;100582.00;;;;5108854;28;20046;-82
2021/06/26 11:37:39;;;;;;;69.45;16.77;;;;;11.60;100538.00;;;;5108586;28;20398;-81
2021/06/26 11:40:26;;;;;;;43.97;16.10;;;;;11.70;100528.00;;;;5109351;28;20530;-80
2021/06/26 11:43:02;;;;;;;28.42;14.38;;;;;11.60;100586.00;;;;5108379;28;20038;-79
2021/06/26 11:45:31;;;;;;;24.85;15.30;;;;;11.70;100663.00;;;;5108854;28;20027;-80
2021/06/26 11:48:20;;;;;;;21.27;16.58;;;;;11.60;100711.00;;;;5108521;28;20141;-78
2021/06/26 11:51:09;;;;;;;18.85;11.68;;;;;11.50;100717.00;;;;5089843;28;20031;-77
2021/06/26 11:53:43;;;;;;;19.10;12.43;;;;;11.40;100686.00;;;;5108321;28;20399;-78
2021/06/26 11:56:15;;;;;;;26.58;9.45;;;;;11.30;100642.00;;;;5108797;28;20433;-78
2021/06/26 11:58:50;;;;;;;20.80;12.60;;;;;11.30;100662.00;;;;5108256;28;20058;-79
2021/06/26 12:01:25;;;;;;;13.88;12.02;;;;;11.30;100663.00;;;;5108878;28;20024;-78
2021/06/26 12:03:52;;;;;;;15.50;10.32;;;;;11.30;100650.00;;;;5090174;28;20080;-77
2021/06/26 12:06:19;;;;;;;15.32;11.68;;;;;11.30;100670.00;;;;5108332;28;20035;-77
2021/06/26 12:08:47;;;;;;;18.80;14.27;;;;;11.30;100700.00;;;;5107879;28;20043;-77
2021/06/26 12:11:34;;;;;;;23.05;14.73;;;;;11.30;100681.00;;;;5090027;28;20023;-77
2021/06/26 12:14:03;;;;;;;24.33;17.90;;;;;11.30;100670.00;;;;5107845;28;20134;-78
2021/06/26 12:16:37;;;;;;;21.40;16.45;;;;;11.30;100656.00;;;;5108139;28;20063;-79